- বাংলা English

 ****Phone:+880 2 9135742, 9123838, 9141437 | Fax: +880 2 8118230, 9119230, 9103908 | E-mail: info@bmd.gov.bd , swc@bmd.gov.bd   | IVR: 1090 |

TAF

TAF VGHS 251100Z 2512/2618 26007KT 4000HZ NSC
 BECMG 2516/2518 29006KT 2500HZ NSC BECMG 2523/2601
 00000KT 1500BR SCT010 BECMG 2603/2605 28007KT
 3000HZ SCT100 BECMG 2608/2610 27007KT 4000HZ
 NSC BECMG 2612/2614 28006KT 3500HZ NSC=

TAF VGSY 251000Z 2512/2618 29505KT 4500HZ NSC
 BECMG 2518/2520 05004KT 3000HZ/BR SCT015 BECMG
 2523/2601 00000KT 1500BR SCT012 BECMG
 2603/2605 09005KT 3000HZ/BR NSC=

TAF VGEG 251100Z 2512/2618 30004KT 3200 HZ NSC
  BECMG 2517/2519 00000KT 2500 BR SCT015
  BECMG 2522/2524 05003KT 1200 BR SCT013
  BECMG 2602/2603 26008KT 3800 HZ NSC
  BECMG 2615/2617 00000KT 3200 HZ=